Airfield :
LOGIN :

Register | Disclaimer

   EN    FR    IT 

 










Legend :    VFR   Marginal VFR   IFR   Intensive IFR   Very Intensive IFR
Visi :
Ceiling :
>= 8 km
>= 3000ft
5 to 8 km
1000 to 3000 ft
1500m to 5 km
500 to 1000 ft
800 to 1500m
200 to 500 ft
< 800m
< 200 ft
Symbols :   Thunderstorms  Fog  Heavy snow  Heavy precipitations  Wind > 20 kt
SIGMETs :     Misc.  Thunderstorms  Icing  Turbulence  Mountain Waves  Volcanic Ashes






- Airport Elevation : 44 ft
- IATA code : HVG


ENHV - Valan

CURRENT METAR :
  • 170320Z AUTO 34005KT 320V020 9999 OVC004/// 07/07 Q1016

EXPIRED METARs :
  • 170250Z AUTO 30004KT 270V010 9999 FEW003/// SCT005/// OVC084/// 08/07 Q1016
  • 170220Z AUTO 29007KT 9999 OVC003/// 07/07 Q1016
  • 170150Z AUTO 33010KT 5000 BR VV003 07/07 Q1016
  • 170120Z AUTO 33005KT 8000 OVC003/// 07/07 Q1016
  • 170050Z AUTO 30008KT 2200 R08/1400U BR OVC003/// 07/07 Q1016
  • 170020Z AUTO 35009KT 0600 R08/1100D FG VV002 07/07 Q1016
  • 162350Z AUTO 01009KT 0450 R08/0900N FG VV001 07/07 Q1016
  • 162320Z AUTO 01008KT 0550 R08/1200N FG VV002 07/07 Q1017

TAF TAF ENHV
Valid from the 17 at 03:00 until the 17 at 12:00 UTC


170200Z 1703/1712 03008KT 2500 BR VV002
TEMPO 1703/1706 0400 FG VV001
BECMG 1705/1708 FEW025 SCT040



MET'MAP, your aeronautical weather chart ! - Copyright ORBIFLY December 2007 - Disclaimer

ORBIFLY MET'MAP TEAM :

Programming & Development : Alexandra Zaïnal
Original concept : Baudouin d'Aumeries
Technical & hardware support : Manuel Goepfert
Assistance : Marc-Olivier Méhu




SOURCES & CREDITS :

   NOAA